createdAt,value
2017-08-15T00:00:33.385Z,14.67
2017-08-15T00:03:00.878Z,14.67
2017-08-15T00:05:29.102Z,11.70
2017-08-15T00:07:56.573Z,13.27
2017-08-15T00:10:24.062Z,13.10
2017-08-15T00:12:51.522Z,14.87
2017-08-15T00:15:18.972Z,15.70
2017-08-15T00:17:46.453Z,16.23
2017-08-15T00:20:14.682Z,17.67
2017-08-15T00:22:42.138Z,12.87
2017-08-15T00:25:09.625Z,15.73
2017-08-15T00:27:37.096Z,11.93
2017-08-15T00:30:05.353Z,12.67
2017-08-15T00:32:32.853Z,16.90
2017-08-15T00:35:00.316Z,17.10
2017-08-15T00:37:27.772Z,15.47
2017-08-15T00:39:55.250Z,16.03
2017-08-15T00:42:22.725Z,24.40
2017-08-15T00:44:50.206Z,12.57
2017-08-15T00:47:17.658Z,13.17
2017-08-15T00:49:45.118Z,16.40
2017-08-15T00:52:12.589Z,15.50
2017-08-15T00:54:40.067Z,15.77
2017-08-15T00:57:07.534Z,12.77
2017-08-15T00:59:34.989Z,14.03
2017-08-15T01:02:02.468Z,16.27
2017-08-15T01:04:29.956Z,15.93
2017-08-15T01:06:57.421Z,18.23
2017-08-15T01:09:24.877Z,21.63
2017-08-15T01:11:52.349Z,19.77
2017-08-15T01:14:19.818Z,15.13
2017-08-15T01:16:47.382Z,21.40
2017-08-15T01:19:14.874Z,15.00
2017-08-15T01:21:42.459Z,15.83
2017-08-15T01:24:09.911Z,16.57
2017-08-15T01:26:37.382Z,19.43
2017-08-15T01:29:04.854Z,17.10
2017-08-15T01:31:32.315Z,18.17
2017-08-15T01:33:59.784Z,19.00
2017-08-15T01:36:27.241Z,22.30
2017-08-15T01:38:54.748Z,25.20
2017-08-15T01:41:22.210Z,24.53
2017-08-15T01:43:49.667Z,20.37
2017-08-15T01:46:17.142Z,24.33
2017-08-15T01:48:44.613Z,21.03
2017-08-15T01:51:12.085Z,21.47
2017-08-15T01:53:39.545Z,21.77
2017-08-15T01:56:07.031Z,22.73
2017-08-15T01:58:35.249Z,21.77
2017-08-15T02:01:02.714Z,23.27
2017-08-15T02:03:30.204Z,23.73
2017-08-15T02:05:57.654Z,27.20
2017-08-15T02:08:25.114Z,23.40
2017-08-15T02:10:52.598Z,27.73
2017-08-15T02:13:21.090Z,30.83
2017-08-15T02:15:48.545Z,24.83
2017-08-15T02:18:16.286Z,27.27
2017-08-15T02:20:43.741Z,26.43
2017-08-15T02:23:11.229Z,26.10
2017-08-15T02:25:38.690Z,28.07
2017-08-15T02:28:06.150Z,26.63
2017-08-15T02:30:33.696Z,27.93
2017-08-15T02:33:01.151Z,26.17
2017-08-15T02:35:29.377Z,29.70
2017-08-15T02:37:56.851Z,27.13
2017-08-15T02:40:24.310Z,30.50
2017-08-15T02:42:51.825Z,30.90
2017-08-15T02:45:19.289Z,25.53
2017-08-15T02:47:46.745Z,34.63
2017-08-15T02:50:14.223Z,28.40
2017-08-15T02:52:41.702Z,34.83
2017-08-15T02:55:09.150Z,32.23
2017-08-15T02:57:36.642Z,34.30
2017-08-15T03:00:04.108Z,35.63
2017-08-15T03:02:31.561Z,40.63
2017-08-15T03:04:59.045Z,31.70
2017-08-15T03:07:26.523Z,37.60
2017-08-15T03:09:53.997Z,32.67
2017-08-15T03:12:21.468Z,32.27
2017-08-15T03:14:48.922Z,30.27
2017-08-15T03:17:16.398Z,35.37
2017-08-15T03:19:43.850Z,31.13
2017-08-15T03:22:11.329Z,36.47
2017-08-15T03:24:38.873Z,34.07
2017-08-15T03:27:06.326Z,37.93
2017-08-15T03:29:33.814Z,37.70
2017-08-15T03:32:01.498Z,31.20
2017-08-15T03:34:28.944Z,38.50
2017-08-15T03:36:56.579Z,34.20
2017-08-15T03:39:24.122Z,34.87
2017-08-15T03:41:51.589Z,31.37
2017-08-15T03:44:19.045Z,35.50
2017-08-15T03:46:46.561Z,36.73
2017-08-15T03:49:14.022Z,32.57
2017-08-15T03:51:41.478Z,35.87
2017-08-15T03:54:08.964Z,35.70
2017-08-15T03:56:36.425Z,34.13
2017-08-15T03:59:03.897Z,34.03
2017-08-15T04:01:31.382Z,37.73
2017-08-15T04:03:58.837Z,44.07
2017-08-15T04:06:26.322Z,38.73
2017-08-15T04:08:53.821Z,40.23
2017-08-15T04:11:21.302Z,40.60
2017-08-15T04:13:48.785Z,39.10
2017-08-15T04:16:16.242Z,57.40
2017-08-15T04:18:43.721Z,40.40
2017-08-15T04:21:11.168Z,45.80
2017-08-15T04:23:38.647Z,40.53
2017-08-15T04:26:06.160Z,45.27
2017-08-15T04:28:34.402Z,45.00
2017-08-15T04:31:01.869Z,49.33
2017-08-15T04:33:29.389Z,54.60
2017-08-15T04:35:56.841Z,46.37
2017-08-15T04:38:24.330Z,45.90
2017-08-15T04:40:51.814Z,48.93
2017-08-15T04:43:19.310Z,46.90
2017-08-15T04:45:46.768Z,48.27
2017-08-15T04:48:14.230Z,44.77
2017-08-15T04:50:41.710Z,49.77
2017-08-15T04:53:09.436Z,50.90
2017-08-15T04:55:36.897Z,45.37
2017-08-15T04:58:04.345Z,46.30
2017-08-15T05:00:31.829Z,44.30
2017-08-15T05:02:59.294Z,42.50
2017-08-15T05:05:26.768Z,44.30
2017-08-15T05:07:54.595Z,41.53
2017-08-15T05:10:22.090Z,50.33
2017-08-15T05:12:49.558Z,39.10
2017-08-15T05:15:17.025Z,38.20
2017-08-15T05:17:44.542Z,41.23
2017-08-15T05:20:11.991Z,35.23
2017-08-15T05:22:39.472Z,37.90
2017-08-15T05:25:06.947Z,41.60
2017-08-15T05:27:34.421Z,37.27
2017-08-15T05:30:01.994Z,40.13
2017-08-15T05:32:29.473Z,29.67
2017-08-15T05:34:56.934Z,33.60
2017-08-15T05:37:24.413Z,37.13
2017-08-15T05:39:51.902Z,31.57
2017-08-15T05:42:19.382Z,25.20
2017-08-15T05:44:46.869Z,34.00
2017-08-15T05:47:14.338Z,31.93
2017-08-15T05:49:41.792Z,24.83
2017-08-15T05:52:09.286Z,29.10
2017-08-15T05:54:36.738Z,30.13
2017-08-15T05:57:04.233Z,28.83
2017-08-15T05:59:31.686Z,29.27
2017-08-15T06:01:59.163Z,29.20
2017-08-15T06:04:26.613Z,23.73
2017-08-15T06:06:54.093Z,20.20
2017-08-15T06:09:21.594Z,18.30
2017-08-15T06:11:49.063Z,21.73
2017-08-15T06:14:16.518Z,23.73
2017-08-15T06:16:44.005Z,20.53
2017-08-15T06:19:12.220Z,20.47
2017-08-15T06:21:39.701Z,21.50
2017-08-15T06:24:07.185Z,25.20
2017-08-15T06:26:34.645Z,17.60
2017-08-15T06:29:02.217Z,18.87
2017-08-15T06:31:29.697Z,17.60
2017-08-15T06:33:57.172Z,18.20
2017-08-15T06:36:24.658Z,17.80
2017-08-15T06:38:52.119Z,13.73
2017-08-15T06:41:19.581Z,17.17
2017-08-15T06:43:47.070Z,16.43
2017-08-15T06:46:15.289Z,18.80
2017-08-15T06:48:42.790Z,20.80
2017-08-15T06:51:10.273Z,24.43
2017-08-15T06:53:37.745Z,17.60
2017-08-15T06:56:05.225Z,19.83
2017-08-15T06:58:32.742Z,23.13
2017-08-15T07:01:00.204Z,26.27
2017-08-15T07:03:27.676Z,21.23
2017-08-15T07:05:55.152Z,26.00
2017-08-15T07:08:22.615Z,18.37
2017-08-15T07:10:50.090Z,23.53
2017-08-15T07:13:17.550Z,18.23
2017-08-15T07:15:45.037Z,20.10
2017-08-15T07:18:13.256Z,19.03
2017-08-15T07:20:40.755Z,16.03
2017-08-15T07:23:08.252Z,20.27
2017-08-15T07:25:35.710Z,18.23
2017-08-15T07:28:03.200Z,17.53
2017-08-15T07:30:30.702Z,18.10
2017-08-15T07:32:58.158Z,22.13
2017-08-15T07:35:25.628Z,22.23
2017-08-15T07:37:53.156Z,15.20
2017-08-15T07:40:20.617Z,19.97
2017-08-15T07:42:48.088Z,14.23
2017-08-15T07:45:15.583Z,16.37
2017-08-15T07:47:43.043Z,20.30
2017-08-15T07:50:10.550Z,19.30
2017-08-15T07:52:38.052Z,16.80
2017-08-15T07:55:05.515Z,22.33
2017-08-15T07:57:32.977Z,25.33
2017-08-15T08:00:00.459Z,16.50
2017-08-15T08:02:27.948Z,19.90
2017-08-15T08:04:55.429Z,13.90
2017-08-15T08:07:22.892Z,19.67
2017-08-15T08:09:51.150Z,15.30
2017-08-15T08:12:18.654Z,16.43
2017-08-15T08:14:46.113Z,16.67
2017-08-15T08:17:13.564Z,20.07
2017-08-15T08:19:41.107Z,14.43
2017-08-15T08:22:08.565Z,15.53
2017-08-15T08:24:36.047Z,16.80
2017-08-15T08:27:03.509Z,21.43
2017-08-15T08:29:30.997Z,16.53
2017-08-15T08:31:58.469Z,17.70
2017-08-15T08:34:25.930Z,12.37
2017-08-15T08:36:53.414Z,14.50
2017-08-15T08:39:21.633Z,22.80
2017-08-15T08:41:49.133Z,16.33
2017-08-15T08:44:16.590Z,11.57
2017-08-15T08:46:44.054Z,16.73
2017-08-15T08:49:11.638Z,24.87
2017-08-15T08:51:39.098Z,13.50
2017-08-15T08:54:06.569Z,14.37
2017-08-15T08:56:34.033Z,14.97
2017-08-15T08:59:01.507Z,18.50
2017-08-15T09:01:29.005Z,14.27
2017-08-15T09:03:56.447Z,14.17
2017-08-15T09:06:24.681Z,16.93
2017-08-15T09:08:52.173Z,16.53
2017-08-15T09:11:19.621Z,13.73
2017-08-15T09:13:47.065Z,13.60
2017-08-15T09:16:14.533Z,18.83
2017-08-15T09:18:42.003Z,14.60
2017-08-15T09:21:09.580Z,10.80
2017-08-15T09:23:37.035Z,19.33
2017-08-15T09:26:04.531Z,19.00
2017-08-15T09:28:31.990Z,15.67
2017-08-15T09:30:59.458Z,26.90
2017-08-15T09:33:26.951Z,21.90
2017-08-15T09:35:54.436Z,17.33
2017-08-15T09:38:21.898Z,15.20
2017-08-15T09:40:50.126Z,11.60
2017-08-15T09:43:17.625Z,24.17
2017-08-15T09:45:45.106Z,16.00
2017-08-15T09:48:12.646Z,14.63
2017-08-15T09:50:40.126Z,11.30
2017-08-15T09:53:07.609Z,12.37
2017-08-15T09:55:35.094Z,15.93
2017-08-15T09:58:08.288Z,11.63
2017-08-15T10:00:35.797Z,12.23
2017-08-15T10:03:03.236Z,15.57
2017-08-15T10:05:31.454Z,15.27
2017-08-15T10:07:58.968Z,14.60
2017-08-15T10:10:26.513Z,13.27
2017-08-15T10:12:53.967Z,17.17
2017-08-15T10:15:21.442Z,16.40
2017-08-15T10:17:48.934Z,14.10
2017-08-15T10:20:16.421Z,11.20
2017-08-15T10:22:43.881Z,15.93
2017-08-15T10:25:11.449Z,12.50
2017-08-15T10:27:38.952Z,12.03
2017-08-15T10:30:07.177Z,13.70
2017-08-15T10:32:34.642Z,16.27
2017-08-15T10:35:02.123Z,13.87
2017-08-15T10:37:29.578Z,21.23
2017-08-15T10:39:57.158Z,10.67
2017-08-15T10:42:24.617Z,18.90
2017-08-15T10:44:52.093Z,10.40
2017-08-15T10:47:19.582Z,14.43
2017-08-15T10:49:47.051Z,11.73
2017-08-15T10:52:14.566Z,13.33
2017-08-15T10:54:42.026Z,14.77
2017-08-15T10:57:09.605Z,10.87
2017-08-15T10:59:37.089Z,17.33
2017-08-15T11:02:04.574Z,13.87
2017-08-15T11:04:32.027Z,11.50
2017-08-15T11:06:59.482Z,8.47
2017-08-15T11:09:27.058Z,12.77
2017-08-15T11:11:54.521Z,16.77
2017-08-15T11:14:21.998Z,11.60
2017-08-15T11:16:49.450Z,12.00
2017-08-15T11:19:16.925Z,13.37
2017-08-15T11:21:44.387Z,11.83
2017-08-15T11:24:11.905Z,16.80
2017-08-15T11:26:39.358Z,12.00
2017-08-15T11:29:06.802Z,11.67
2017-08-15T11:31:34.294Z,18.23
2017-08-15T11:34:01.747Z,16.90
2017-08-15T11:36:29.197Z,9.43
2017-08-15T11:38:56.678Z,11.60
2017-08-15T11:41:24.137Z,10.50
2017-08-15T11:43:51.622Z,13.83
2017-08-15T11:46:19.078Z,12.47
2017-08-15T11:48:46.574Z,12.43
2017-08-15T11:51:14.034Z,10.93
2017-08-15T11:53:41.497Z,15.90
2017-08-15T11:56:08.977Z,14.97
2017-08-15T11:58:36.445Z,10.17
2017-08-15T12:01:03.910Z,11.10
2017-08-15T12:03:31.362Z,18.40
2017-08-15T12:05:58.833Z,12.53
2017-08-15T12:08:26.290Z,8.43
2017-08-15T12:10:53.749Z,8.07
2017-08-15T12:13:21.227Z,7.20
2017-08-15T12:15:48.701Z,10.47
2017-08-15T12:18:16.146Z,6.77
2017-08-15T12:20:43.598Z,6.23
2017-08-15T12:23:11.078Z,11.67
2017-08-15T12:25:38.545Z,11.80
2017-08-15T12:28:06.022Z,4.20
2017-08-15T12:30:33.494Z,8.07
2017-08-15T12:33:00.941Z,7.63
2017-08-15T12:35:29.170Z,6.53
2017-08-15T12:37:56.622Z,6.20
2017-08-15T12:40:24.093Z,9.20
2017-08-15T12:42:51.550Z,8.70
2017-08-15T12:45:19.033Z,16.70
2017-08-15T12:47:46.518Z,7.60
2017-08-15T12:50:14.725Z,6.23
2017-08-15T12:52:42.206Z,11.13
2017-08-15T12:55:09.666Z,10.23
2017-08-15T12:57:37.136Z,5.50
2017-08-15T13:00:04.687Z,23.50
2017-08-15T13:02:32.157Z,9.43
2017-08-15T13:04:59.605Z,5.90
2017-08-15T13:07:27.077Z,7.60
2017-08-15T13:09:54.582Z,9.10
2017-08-15T13:12:22.074Z,6.33
2017-08-15T13:14:49.517Z,8.20
2017-08-15T13:17:17.002Z,18.07
2017-08-15T13:19:44.490Z,8.27
2017-08-15T13:22:11.944Z,9.80
2017-08-15T13:24:40.201Z,9.10
2017-08-15T13:27:07.661Z,9.47
2017-08-15T13:29:35.193Z,9.63
2017-08-15T13:32:02.679Z,9.37
2017-08-15T13:34:30.141Z,7.50
2017-08-15T13:36:57.627Z,9.27
2017-08-15T13:39:25.091Z,11.53
2017-08-15T13:41:52.596Z,7.93
2017-08-15T13:44:20.054Z,8.23
2017-08-15T13:46:47.522Z,9.93
2017-08-15T13:49:14.997Z,5.40
2017-08-15T13:51:43.216Z,9.17
2017-08-15T13:54:10.678Z,10.10
2017-08-15T13:56:38.362Z,10.50
2017-08-15T13:59:05.833Z,9.33
2017-08-15T14:01:33.286Z,9.33
2017-08-15T14:04:00.750Z,9.77
2017-08-15T14:06:28.214Z,7.13
2017-08-15T14:08:55.700Z,7.83
2017-08-15T14:11:23.167Z,14.40
2017-08-15T14:13:50.629Z,6.43
2017-08-15T14:16:18.117Z,19.73
2017-08-15T14:18:45.558Z,8.80
2017-08-15T14:21:13.009Z,11.90
2017-08-15T14:23:40.507Z,13.23
2017-08-15T14:26:07.996Z,11.20
2017-08-15T14:28:35.461Z,7.80
2017-08-15T14:31:02.926Z,11.93
2017-08-15T14:33:30.407Z,9.20
2017-08-15T14:35:57.874Z,10.00
2017-08-15T14:38:25.339Z,10.23
2017-08-15T14:40:52.826Z,8.93
2017-08-15T14:43:20.283Z,8.17
2017-08-15T14:45:47.733Z,10.43
2017-08-15T14:48:15.212Z,10.50
2017-08-15T14:50:43.470Z,10.17
2017-08-15T14:53:10.925Z,7.03
2017-08-15T14:55:38.386Z,15.53
2017-08-15T14:58:05.870Z,20.33
2017-08-15T15:00:34.098Z,23.27
2017-08-15T15:03:01.565Z,8.40
2017-08-15T15:05:29.046Z,11.27
2017-08-15T15:07:56.522Z,8.37
2017-08-15T15:10:24.735Z,7.97
2017-08-15T15:12:52.190Z,11.20
2017-08-15T15:15:19.672Z,11.53
2017-08-15T15:17:47.117Z,9.03
2017-08-15T15:20:14.567Z,14.70
2017-08-15T15:22:42.089Z,18.90
2017-08-15T15:25:10.305Z,11.93
2017-08-15T15:27:37.754Z,8.20
2017-08-15T15:30:05.294Z,10.23
2017-08-15T15:32:32.801Z,15.30
2017-08-15T15:35:00.259Z,10.90
2017-08-15T15:37:27.738Z,11.67
2017-08-15T15:39:55.198Z,13.20
2017-08-15T15:42:22.646Z,11.97
2017-08-15T15:44:50.145Z,20.07
2017-08-15T15:47:22.411Z,15.80
2017-08-15T15:49:50.153Z,16.70
2017-08-15T15:52:17.616Z,7.77
2017-08-15T15:54:45.101Z,10.33
2017-08-15T15:57:12.552Z,8.30
2017-08-15T15:59:40.023Z,10.80
2017-08-15T16:02:07.496Z,16.80
2017-08-15T16:04:34.953Z,17.00
2017-08-15T16:07:02.416Z,10.93
2017-08-15T16:09:29.985Z,9.50
2017-08-15T16:11:57.440Z,12.00
2017-08-15T16:14:24.905Z,16.07
2017-08-15T16:16:52.381Z,12.33
2017-08-15T16:19:19.950Z,13.13
2017-08-15T16:21:47.392Z,8.33
2017-08-15T16:24:14.880Z,12.50
2017-08-15T16:26:42.333Z,9.10
2017-08-15T16:29:09.838Z,10.03
2017-08-15T16:31:37.281Z,9.30
2017-08-15T16:34:04.777Z,11.67
2017-08-15T16:36:32.277Z,17.23
2017-08-15T16:38:59.765Z,16.00
2017-08-15T16:41:27.287Z,19.23
2017-08-15T16:43:54.810Z,18.03
2017-08-15T16:46:22.301Z,22.10
2017-08-15T16:48:49.857Z,13.70
2017-08-15T16:51:17.406Z,16.53
2017-08-15T16:53:44.877Z,11.13
2017-08-15T16:56:13.113Z,16.50
2017-08-15T16:58:40.646Z,11.00
2017-08-15T17:01:08.106Z,13.23
2017-08-15T17:03:35.552Z,9.03
2017-08-15T17:06:03.038Z,21.70
2017-08-15T17:08:30.505Z,17.80
2017-08-15T17:10:57.957Z,17.57
2017-08-15T17:13:25.950Z,17.40
2017-08-15T17:15:54.196Z,13.63
2017-08-15T17:18:29.065Z,12.70
2017-08-15T17:20:58.508Z,11.90
2017-08-15T17:23:26.285Z,15.40
2017-08-15T17:25:54.506Z,14.10
2017-08-15T17:28:22.340Z,10.03
2017-08-15T17:30:49.837Z,8.23
2017-08-15T17:33:17.481Z,18.40
2017-08-15T17:35:45.501Z,16.03
2017-08-15T17:38:13.781Z,17.90
2017-08-15T17:40:41.230Z,14.13
2017-08-15T17:43:09.485Z,14.20
2017-08-15T17:45:37.073Z,15.40
2017-08-15T17:48:05.368Z,10.93
2017-08-15T17:50:32.891Z,11.00
2017-08-15T17:53:01.557Z,14.07
2017-08-15T17:55:29.880Z,12.70
2017-08-15T17:57:58.109Z,11.97
2017-08-15T18:00:25.598Z,11.70
2017-08-15T18:02:53.101Z,10.97
2017-08-15T18:05:20.625Z,12.20
2017-08-15T18:07:48.151Z,17.00
2017-08-15T18:10:15.629Z,12.97
2017-08-15T18:12:43.156Z,19.27
2017-08-15T18:15:10.676Z,16.93
2017-08-15T18:17:38.207Z,19.10
2017-08-15T18:20:06.467Z,14.77
2017-08-15T18:22:34.012Z,12.87
2017-08-15T18:25:01.502Z,15.87
2017-08-15T18:27:29.863Z,14.03
2017-08-15T18:29:57.764Z,12.80
2017-08-15T18:32:25.697Z,12.90
2017-08-15T18:34:53.392Z,11.63
2017-08-15T18:37:21.468Z,20.23
2017-08-15T18:39:49.020Z,15.23
2017-08-15T18:42:16.566Z,13.50
2017-08-15T18:44:44.085Z,17.30
2017-08-15T18:47:11.619Z,12.90
2017-08-15T18:49:39.129Z,14.47
2017-08-15T18:52:06.855Z,17.27
2017-08-15T18:54:34.317Z,15.47
2017-08-15T18:57:03.520Z,14.27
2017-08-15T18:59:31.171Z,16.60
2017-08-15T19:01:58.675Z,23.40
2017-08-15T19:04:26.366Z,16.40
2017-08-15T19:06:53.870Z,21.60
2017-08-15T19:09:21.584Z,18.10
2017-08-15T19:11:49.230Z,11.93
2017-08-15T19:14:18.844Z,15.77
2017-08-15T19:16:48.325Z,11.03
2017-08-15T19:19:16.141Z,19.50
2017-08-15T19:21:43.675Z,15.37
2017-08-15T19:24:23.359Z,20.00
2017-08-15T19:26:51.005Z,11.90
2017-08-15T19:29:18.635Z,15.57
2017-08-15T19:31:46.325Z,14.80
2017-08-15T19:34:14.069Z,19.23
2017-08-15T19:36:41.595Z,20.90
2017-08-15T19:39:09.284Z,23.50
2017-08-15T19:41:36.967Z,15.33
2017-08-15T19:44:04.633Z,14.10
2017-08-15T19:46:32.883Z,15.33
2017-08-15T19:49:00.397Z,15.10
2017-08-15T19:51:27.965Z,15.03
2017-08-15T19:53:55.681Z,14.13
2017-08-15T19:56:23.161Z,22.60
2017-08-15T19:58:51.378Z,16.80
2017-08-15T20:01:18.883Z,17.17
2017-08-15T20:03:46.379Z,18.73
2017-08-15T20:06:13.871Z,12.27
2017-08-15T20:08:41.370Z,18.40
2017-08-15T20:11:09.659Z,15.00
2017-08-15T20:13:37.107Z,17.97
2017-08-15T20:16:04.561Z,21.50
2017-08-15T20:18:32.813Z,15.47
2017-08-15T20:21:00.314Z,18.10
2017-08-15T20:23:28.543Z,17.67
2017-08-15T20:25:56.010Z,22.47
2017-08-15T20:28:23.474Z,17.53
2017-08-15T20:30:50.950Z,20.90
2017-08-15T20:33:18.410Z,17.00
2017-08-15T20:35:45.885Z,22.53
2017-08-15T20:38:13.346Z,23.33
2017-08-15T20:40:40.842Z,19.90
2017-08-15T20:43:08.348Z,21.87
2017-08-15T20:45:36.566Z,20.60
2017-08-15T20:48:04.021Z,18.27
2017-08-15T20:50:31.498Z,25.17
2017-08-15T20:52:58.958Z,20.80
2017-08-15T20:55:26.433Z,21.53
2017-08-15T20:57:53.886Z,26.47
2017-08-15T21:00:21.468Z,26.63
2017-08-15T21:02:48.972Z,24.83
2017-08-15T21:05:16.500Z,22.50
2017-08-15T21:07:43.968Z,25.73
2017-08-15T21:10:11.454Z,25.10
2017-08-15T21:12:38.910Z,29.73
2017-08-15T21:15:06.396Z,20.50
2017-08-15T21:17:33.858Z,31.37
2017-08-15T21:20:01.309Z,24.10
2017-08-15T21:22:28.791Z,28.23
2017-08-15T21:24:56.237Z,30.47
2017-08-15T21:27:23.719Z,26.87
2017-08-15T21:29:51.175Z,26.77
2017-08-15T21:32:18.645Z,27.80
2017-08-15T21:34:46.112Z,30.40
2017-08-15T21:37:13.595Z,31.43
2017-08-15T21:39:41.070Z,31.17
2017-08-15T21:42:08.530Z,37.90
2017-08-15T21:44:36.027Z,27.03
2017-08-15T21:47:03.502Z,34.20
2017-08-15T21:49:30.962Z,42.30
2017-08-15T21:51:58.455Z,27.93
2017-08-15T21:54:25.915Z,34.53
2017-08-15T21:56:53.394Z,31.43
2017-08-15T21:59:20.859Z,29.13
2017-08-15T22:01:53.930Z,30.30
2017-08-15T22:04:21.414Z,30.43
2017-08-15T22:06:48.870Z,39.87
2017-08-15T22:09:17.133Z,30.40
2017-08-15T22:11:44.585Z,35.83
2017-08-15T22:14:12.037Z,28.37
2017-08-15T22:16:39.514Z,25.10
2017-08-15T22:19:06.970Z,28.67
2017-08-15T22:21:34.458Z,31.53
2017-08-15T22:24:01.926Z,25.50
2017-08-15T22:26:29.381Z,32.10
2017-08-15T22:28:56.910Z,28.57
2017-08-15T22:31:24.385Z,32.13
2017-08-15T22:33:51.837Z,31.13
2017-08-15T22:36:19.317Z,30.10
2017-08-15T22:38:46.778Z,26.40
2017-08-15T22:41:14.275Z,29.37
2017-08-15T22:43:41.729Z,21.70
2017-08-15T22:46:09.190Z,26.10
2017-08-15T22:48:36.669Z,36.60
2017-08-15T22:51:04.147Z,22.80
2017-08-15T22:53:31.602Z,30.37
2017-08-15T22:55:59.842Z,37.33
2017-08-15T22:58:27.475Z,34.43
2017-08-15T23:00:54.931Z,30.77
2017-08-15T23:03:22.390Z,32.80
2017-08-15T23:05:49.866Z,30.50
2017-08-15T23:08:17.346Z,31.33
2017-08-15T23:10:44.801Z,28.20
2017-08-15T23:13:12.277Z,33.77
2017-08-15T23:15:40.571Z,38.07
2017-08-15T23:18:08.790Z,30.53
2017-08-15T23:20:36.250Z,32.00
2017-08-15T23:23:03.727Z,37.50
2017-08-15T23:25:31.177Z,33.77
2017-08-15T23:27:58.666Z,34.60
2017-08-15T23:30:26.885Z,31.33
2017-08-15T23:32:54.346Z,32.23
2017-08-15T23:35:21.818Z,32.40
2017-08-15T23:37:49.329Z,32.63
2017-08-15T23:40:17.557Z,33.43
2017-08-15T23:42:45.013Z,42.53
2017-08-15T23:45:12.490Z,37.67
2017-08-15T23:47:39.948Z,43.90
2017-08-15T23:50:07.423Z,41.83
2017-08-15T23:52:35.662Z,55.13
2017-08-15T23:55:03.114Z,37.37
2017-08-15T23:57:30.586Z,42.23
2017-08-15T23:59:58.045Z,45.57
